Time;durP1;ratioP1;P1;durP2;ratioP2;P2;SDS_P1;SDS_P2;PMS_P1;PMS_P2;Temp;Humidity;BMP_temperature;BMP_pressure;BME280_temperature;BME280_humidity;BME280_pressure;Samples;Min_cycle;Max_cycle;Signal;HPM_P1;HPM_P2
2021/09/07 00:00:21;;;;;;;10.40;4.08;;;;;;;8.97;70.95;102121.16;1817422;79;21058;-63
2021/09/07 00:02:50;;;;;;;6.47;2.98;;;;;;;8.96;70.85;102115.01;1817284;79;21160;-64
2021/09/07 00:05:19;;;;;;;10.08;3.02;;;;;;;8.93;71.13;102116.80;1817368;79;21128;-64
2021/09/07 00:07:48;;;;;;;7.50;3.17;;;;;;;8.87;71.41;102112.48;1817578;79;21534;-63
2021/09/07 00:10:17;;;;;;;7.92;3.30;;;;;;;8.83;71.30;102116.89;1817525;77;21504;-63
2021/09/07 00:12:46;;;;;;;8.20;3.20;;;;;;;8.79;71.62;102120.44;1817533;78;21212;-63
2021/09/07 00:15:18;;;;;;;5.87;3.15;;;;;;;8.78;71.87;102123.97;1817350;78;21069;-64
2021/09/07 00:17:47;;;;;;;7.90;3.30;;;;;;;8.75;72.05;102133.17;1821538;77;21488;-63
2021/09/07 00:20:16;;;;;;;6.17;4.05;;;;;;;8.68;72.04;102127.55;1822642;79;21508;-63
2021/09/07 00:22:45;;;;;;;7.10;4.20;;;;;;;8.68;71.89;102130.17;1822663;78;21535;-63
2021/09/07 00:25:14;;;;;;;7.35;3.60;;;;;;;8.66;71.88;102134.57;1822704;79;21550;-64
2021/09/07 00:27:43;;;;;;;8.85;3.37;;;;;;;8.65;71.75;102135.44;1822377;78;21017;-64
2021/09/07 00:30:13;;;;;;;6.20;2.72;;;;;;;8.62;71.63;102131.09;1822371;79;21070;-62
2021/09/07 00:32:41;;;;;;;6.47;2.98;;;;;;;8.59;71.64;102138.98;1822568;79;21054;-63
2021/09/07 00:35:15;;;;;;;5.17;3.17;;;;;;;8.54;71.79;102136.88;1822397;79;21124;-63
2021/09/07 00:37:42;;;;;;;7.92;3.20;;;;;;;8.49;72.03;102140.83;1822212;79;21143;-63
2021/09/07 00:40:12;;;;;;;6.70;3.77;;;;;;;8.45;72.30;102144.37;1822545;78;21021;-64
2021/09/07 00:42:41;;;;;;;10.30;4.67;;;;;;;8.42;72.37;102143.07;1822307;79;21077;-63
2021/09/07 00:45:16;;;;;;;9.68;4.37;;;;;;;8.40;72.75;102145.25;1822399;79;21054;-63
2021/09/07 00:47:42;;;;;;;9.60;3.52;;;;;;;8.34;73.44;102141.34;1822374;78;21488;-64
2021/09/07 00:50:13;;;;;;;7.70;3.98;;;;;;;8.29;73.48;102142.70;1822518;78;21022;-63
2021/09/07 00:52:42;;;;;;;14.15;5.55;;;;;;;8.27;73.49;102145.78;1822515;79;21116;-64
2021/09/07 00:55:12;;;;;;;12.07;7.25;;;;;;;8.25;73.26;102144.92;1822326;79;21491;-63
2021/09/07 00:57:42;;;;;;;11.60;8.75;;;;;;;8.23;73.10;102148.00;1822560;79;21115;-63
2021/09/07 01:00:12;;;;;;;9.20;5.75;;;;;;;8.21;73.07;102147.15;1822512;79;21424;-64
2021/09/07 01:02:41;;;;;;;8.75;4.50;;;;;;;8.18;72.96;102142.77;1822555;78;21070;-63
2021/09/07 01:05:12;;;;;;;9.65;3.33;;;;;;;8.16;72.89;102143.67;1822521;79;21078;-63
2021/09/07 01:07:43;;;;;;;6.25;3.15;;;;;;;8.11;72.88;102140.65;1822286;79;21070;-63
2021/09/07 01:10:12;;;;;;;7.22;3.00;;;;;;;8.08;73.11;102150.29;1822590;79;21025;-62
2021/09/07 01:12:42;;;;;;;7.90;3.27;;;;;;;8.03;73.76;102150.75;1822611;79;21108;-63
2021/09/07 01:15:12;;;;;;;6.87;4.03;;;;;;;7.99;73.50;102144.65;1822435;79;21498;-64
2021/09/07 01:17:41;;;;;;;6.75;3.10;;;;;;;7.98;73.37;102150.76;1822411;76;21049;-63
2021/09/07 01:20:11;;;;;;;12.43;3.90;;;;;;;7.95;73.50;102149.48;1822286;79;21143;-63
2021/09/07 01:22:39;;;;;;;13.75;4.20;;;;;;;7.92;73.87;102153.42;1822532;79;21050;-63
2021/09/07 01:25:09;;;;;;;11.38;4.33;;;;;;;7.90;73.65;102147.33;1822352;78;21094;-62
2021/09/07 01:27:38;;;;;;;13.03;4.60;;;;;;;7.87;74.07;102152.57;1822542;79;21017;-64
2021/09/07 01:30:07;;;;;;;12.88;4.17;;;;;;;7.80;74.38;102146.92;1822543;79;21136;-63
2021/09/07 01:32:36;;;;;;;10.72;4.00;;;;;;;7.77;74.58;102147.83;1822360;79;21155;-64
2021/09/07 01:35:06;;;;;;;9.55;4.22;;;;;;;7.76;74.57;102143.89;1822421;79;21515;-64
2021/09/07 01:37:39;;;;;;;12.40;4.33;;;;;;;7.73;74.62;102145.66;1822513;78;21049;-63
2021/09/07 01:40:08;;;;;;;;;;;;;;;7.73;74.72;102148.27;1823969;79;21112;-63
2021/09/07 01:42:37;;;;;;;15.43;4.83;;;;;;;7.71;74.65;102142.17;1822437;79;20158;-63
2021/09/07 01:45:07;;;;;;;10.38;4.50;;;;;;;7.68;74.47;102152.66;1822348;79;21073;-63
2021/09/07 01:47:37;;;;;;;8.05;4.40;;;;;;;7.65;74.59;102147.42;1822551;79;21038;-63
2021/09/07 01:50:06;;;;;;;9.08;3.62;;;;;;;7.62;74.93;102147.45;1822419;79;21492;-63
2021/09/07 01:52:35;;;;;;;10.10;3.80;;;;;;;7.60;74.96;102143.97;1822482;79;21117;-63
2021/09/07 01:55:05;;;;;;;7.55;3.65;;;;;;;7.61;74.79;102147.45;1822526;79;21045;-64
2021/09/07 01:57:34;;;;;;;11.20;4.25;;;;;;;7.58;74.67;102150.98;1822319;78;21069;-63
2021/09/07 02:00:05;;;;;;;8.05;3.08;;;;;;;7.55;74.76;102158.84;1822403;79;21085;-63
2021/09/07 02:02:36;;;;;;;9.35;3.67;;;;;;;7.52;74.92;102156.22;1821541;78;21491;-63
2021/09/07 02:05:05;;;;;;;9.10;3.95;;;;;;;7.51;75.15;102161.05;1822516;79;21457;-63
2021/09/07 02:07:36;;;;;;;13.53;4.92;;;;;;;7.48;75.25;102163.67;1822384;79;21539;-64
2021/09/07 02:10:08;;;;;;;16.75;5.60;;;;;;;7.44;75.51;102160.63;1822336;78;21539;-63
2021/09/07 02:12:36;;;;;;;16.45;6.03;;;;;;;7.43;75.93;102162.39;1822491;79;21115;-63
2021/09/07 02:15:07;;;;;;;15.65;5.28;;;;;;;7.36;76.33;102151.48;1822549;79;21052;-63
2021/09/07 02:17:37;;;;;;;11.95;4.75;;;;;;;7.30;76.22;102158.93;1821765;77;21038;-64
2021/09/07 02:20:07;;;;;;;12.35;4.58;;;;;;;7.26;76.05;102166.78;1817219;78;21042;-63
2021/09/07 02:22:36;;;;;;;10.63;4.92;;;;;;;7.21;76.46;102160.68;1817171;79;21159;-64
2021/09/07 02:25:06;;;;;;;16.20;5.28;;;;;;;7.17;76.67;102167.67;1817139;78;21519;-63
2021/09/07 02:27:35;;;;;;;18.98;5.60;;;;;;;7.13;76.70;102168.56;1817217;79;21037;-64
2021/09/07 02:30:07;;;;;;;13.35;5.33;;;;;;;7.09;76.76;102172.06;1817384;79;21038;-62
2021/09/07 02:32:36;;;;;;;17.27;5.00;;;;;;;7.07;76.81;102165.96;1816877;79;21049;-64
2021/09/07 02:35:06;;;;;;;26.85;6.85;;;;;;;7.02;76.64;102163.78;1817298;78;21100;-63
2021/09/07 02:37:36;;;;;;;20.62;7.85;;;;;;;6.96;76.64;102168.14;1817325;79;21037;-63
2021/09/07 02:40:07;;;;;;;15.35;10.15;;;;;;;6.94;76.80;102168.59;1817326;79;21042;-64
2021/09/07 02:42:36;;;;;;;17.37;11.80;;;;;;;6.91;76.90;102176.44;1817362;78;21049;-63
2021/09/07 02:45:07;;;;;;;19.55;12.13;;;;;;;6.90;76.79;102176.02;1817172;79;21042;-63
2021/09/07 02:47:35;;;;;;;17.60;13.50;;;;;;;6.92;76.63;102174.27;1817306;79;21112;-64
2021/09/07 02:50:05;;;;;;;11.57;7.97;;;;;;;6.93;76.50;102179.95;1817183;79;21224;-64
2021/09/07 02:52:34;;;;;;;15.50;6.87;;;;;;;6.93;76.44;102176.03;1817475;79;21049;-63
2021/09/07 02:55:03;;;;;;;8.75;5.62;;;;;;;6.93;76.33;102176.44;1817450;79;21110;-63
2021/09/07 02:57:32;;;;;;;11.25;5.50;;;;;;;6.91;76.15;102186.91;1817398;78;21124;-64
2021/09/07 03:00:00;;;;;;;16.30;8.48;;;;;;;6.90;76.45;102189.56;1817406;78;21049;-63
2021/09/07 03:02:29;;;;;;;9.05;6.12;;;;;;;6.85;76.97;102192.16;1817208;79;21176;-63
2021/09/07 03:04:59;;;;;;;18.27;8.05;;;;;;;6.87;76.79;102189.55;1817293;78;21077;-63
2021/09/07 03:07:28;;;;;;;19.87;8.40;;;;;;;6.88;76.68;102194.79;1817371;79;21093;-63
2021/09/07 03:09:58;;;;;;;20.35;8.95;;;;;;;6.88;76.89;102191.27;1817293;79;21101;-63
2021/09/07 03:12:27;;;;;;;15.83;10.13;;;;;;;6.89;77.10;102193.03;1817283;79;21583;-63
2021/09/07 03:14:56;;;;;;;17.70;11.63;;;;;;;6.89;77.07;102196.95;1817249;79;21077;-63
2021/09/07 03:17:26;;;;;;;15.60;8.98;;;;;;;6.88;77.29;102200.02;1817308;79;21078;-64
2021/09/07 03:19:55;;;;;;;19.30;10.00;;;;;;;6.91;77.48;102200.00;1821392;77;21507;-63
2021/09/07 03:22:24;;;;;;;11.15;7.10;;;;;;;6.98;77.42;102207.88;1822633;79;21050;-63
2021/09/07 03:24:53;;;;;;;14.93;6.95;;;;;;;7.00;77.58;102203.06;1822442;79;21037;-62
2021/09/07 03:27:22;;;;;;;15.35;7.42;;;;;;;7.08;77.62;102199.13;1822502;79;21077;-63
2021/09/07 03:29:51;;;;;;;13.48;6.78;;;;;;;7.14;77.52;102202.61;1822427;79;21045;-64
2021/09/07 03:32:21;;;;;;;16.15;7.22;;;;;;;7.23;77.33;102201.73;1822394;78;21515;-63
2021/09/07 03:34:50;;;;;;;14.68;8.73;;;;;;;7.34;77.16;102207.83;1822515;79;21468;-63
2021/09/07 03:37:19;;;;;;;19.37;15.63;;;;;;;7.44;77.03;102205.19;1822453;79;21070;-63
2021/09/07 03:39:48;;;;;;;18.77;16.87;;;;;;;7.60;76.70;102208.61;1822344;79;21113;-65
2021/09/07 03:42:17;;;;;;;17.37;12.95;;;;;;;7.79;76.41;102212.06;1822719;79;21559;-64
2021/09/07 03:44:46;;;;;;;13.30;10.05;;;;;;;8.07;76.01;102219.36;1822435;78;21085;-64
2021/09/07 03:47:16;;;;;;;12.25;9.40;;;;;;;8.37;75.58;102213.05;1822497;79;21148;-63
2021/09/07 03:49:44;;;;;;;11.68;7.87;;;;;;;8.67;75.37;102212.48;1822419;78;21057;-64
2021/09/07 03:52:14;;;;;;;16.85;7.45;;;;;;;8.97;74.94;102210.48;1822449;79;21516;-65
2021/09/07 03:54:43;;;;;;;10.82;8.15;;;;;;;9.33;74.53;102212.31;1822453;79;21523;-62
2021/09/07 03:57:12;;;;;;;16.70;11.18;;;;;;;9.64;74.11;102207.13;1822437;78;21520;-63
2021/09/07 03:59:41;;;;;;;16.15;11.45;;;;;;;9.99;73.70;102212.41;1822428;79;21054;-63
2021/09/07 04:02:10;;;;;;;19.50;12.13;;;;;;;10.29;73.10;102206.33;1822434;79;21074;-65
2021/09/07 04:04:39;;;;;;;14.23;10.38;;;;;;;10.58;72.43;102203.27;1822417;79;21097;-65
2021/09/07 04:07:09;;;;;;;11.00;8.63;;;;;;;10.86;71.86;102202.81;1821348;78;21085;-65
2021/09/07 04:09:44;;;;;;;8.08;6.72;;;;;;;11.22;71.56;102208.35;1822505;79;21088;-64
2021/09/07 04:12:10;;;;;;;9.43;5.08;;;;;;;11.55;70.85;102209.94;1821950;79;21135;-65
2021/09/07 04:14:45;;;;;;;12.40;6.40;;;;;;;11.84;70.17;102208.03;1822606;78;21123;-63
2021/09/07 04:17:25;;;;;;;12.03;5.62;;;;;;;12.15;69.59;102210.02;1821985;79;21088;-63
2021/09/07 04:19:52;;;;;;;7.67;5.20;;;;;;;12.45;68.95;102220.79;1793434;77;21070;-63
2021/09/07 04:22:37;;;;;;;10.15;5.33;;;;;;;12.80;68.58;102212.04;1828489;78;21143;-63
2021/09/07 04:25:10;;;;;;;8.65;4.90;;;;;;;13.03;66.96;102214.09;1822038;78;21121;-63
2021/09/07 04:27:41;;;;;;;10.35;4.33;;;;;;;13.38;66.90;102219.39;1828453;78;21073;-63
2021/09/07 04:30:12;;;;;;;9.18;4.15;;;;;;;13.77;66.39;102212.10;1828485;77;21202;-63
2021/09/07 04:32:41;;;;;;;6.67;3.50;;;;;;;14.12;65.97;102212.84;1828643;78;21107;-63
2021/09/07 04:35:12;;;;;;;7.95;3.55;;;;;;;14.48;65.53;102204.20;1828524;78;21057;-64
2021/09/07 04:37:41;;;;;;;9.35;4.08;;;;;;;14.80;64.48;102209.41;1827978;78;21045;-64
2021/09/07 04:40:10;;;;;;;14.18;4.47;;;;;;;15.10;63.63;102211.92;1828477;77;21120;-64
2021/09/07 04:42:40;;;;;;;13.00;4.90;;;;;;;15.38;62.07;102218.02;1828423;78;21096;-64
2021/09/07 04:45:13;;;;;;;10.43;4.78;;;;;;;15.50;60.99;102212.71;1828501;77;21147;-64
2021/09/07 04:47:48;;;;;;;11.95;4.53;;;;;;;15.76;60.57;102217.09;1824717;78;21171;-64
2021/09/07 04:50:19;;;;;;;14.93;3.95;;;;;;;15.91;59.34;102212.13;1828558;77;21046;-64
2021/09/07 04:52:54;;;;;;;14.47;4.30;;;;;;;16.17;59.08;102209.79;1828328;77;21147;-64
2021/09/07 04:55:23;;;;;;;10.93;4.55;;;;;;;16.47;58.47;102210.82;1828471;77;21562;-64
2021/09/07 04:57:51;;;;;;;18.15;4.20;;;;;;;16.68;58.14;102211.28;1828516;77;21131;-64
2021/09/07 05:00:20;;;;;;;13.20;4.15;;;;;;;17.02;57.73;102209.03;1828404;78;21143;-64
2021/09/07 05:02:49;;;;;;;15.25;4.58;;;;;;;17.47;57.16;102210.63;1828490;78;21069;-63
2021/09/07 05:05:17;;;;;;;8.63;4.40;;;;;;;17.86;56.65;102207.11;1828557;78;21057;-65
2021/09/07 05:07:46;;;;;;;10.28;4.20;;;;;;;18.24;56.40;102213.75;1828455;78;21629;-64
2021/09/07 05:10:15;;;;;;;12.30;5.08;;;;;;;18.42;55.41;102208.86;1828500;78;21069;-64
2021/09/07 05:12:44;;;;;;;13.55;4.67;;;;;;;18.64;54.74;102211.33;1828508;77;21464;-64
2021/09/07 05:15:13;;;;;;;12.03;4.72;;;;;;;18.90;54.20;102210.53;1828656;78;21026;-63
2021/09/07 05:17:41;;;;;;;22.30;7.87;;;;;;;19.12;53.61;102212.11;1828464;78;21077;-64
2021/09/07 05:20:11;;;;;;;9.03;5.20;;;;;;;19.43;53.19;102208.69;1827013;77;21105;-64
2021/09/07 05:22:40;;;;;;;15.65;5.72;;;;;;;19.76;52.33;102209.20;1822508;79;21120;-64
2021/09/07 05:25:10;;;;;;;17.35;5.60;;;;;;;19.94;51.10;102216.66;1822412;79;21083;-64
2021/09/07 05:27:39;;;;;;;17.57;5.40;;;;;;;20.09;50.57;102221.66;1822620;79;21085;-64
2021/09/07 05:30:11;;;;;;;15.75;6.33;;;;;;;20.20;50.33;102220.58;1822420;79;21511;-64
2021/09/07 05:32:40;;;;;;;20.02;5.58;;;;;;;20.38;49.58;102221.32;1822304;79;21034;-64
2021/09/07 05:35:09;;;;;;;16.20;5.47;;;;;;;20.61;48.83;102220.05;1822500;79;21535;-64
2021/09/07 05:37:39;;;;;;;12.00;4.85;;;;;;;20.69;47.76;102220.45;1822534;79;21351;-64
2021/09/07 05:40:10;;;;;;;19.57;5.25;;;;;;;20.79;47.49;102218.97;1822422;79;21034;-63
2021/09/07 05:42:42;;;;;;;16.45;5.67;;;;;;;21.08;47.50;102222.20;1822392;79;21147;-64
2021/09/07 05:45:11;;;;;;;18.05;5.47;;;;;;;21.28;47.28;102215.16;1822125;79;21046;-64
2021/09/07 05:47:40;;;;;;;15.30;4.97;;;;;;;21.53;47.13;102214.55;1822502;79;21057;-64
2021/09/07 05:50:10;;;;;;;14.13;6.05;;;;;;;21.65;46.47;102218.76;1822422;79;21105;-64
2021/09/07 05:52:39;;;;;;;14.35;5.65;;;;;;;21.76;46.12;102212.23;1822524;78;21208;-64
2021/09/07 05:55:08;;;;;;;13.55;5.20;;;;;;;21.90;44.70;102214.91;1822464;79;21026;-63
2021/09/07 05:57:39;;;;;;;21.17;7.15;;;;;;;21.72;44.28;102220.09;1822314;79;21089;-64
2021/09/07 06:00:13;;;;;;;16.00;5.58;;;;;;;21.63;43.97;102216.16;1822483;78;21441;-64
2021/09/07 06:02:43;;;;;;;20.88;7.03;;;;;;;21.80;44.29;102224.52;1822527;79;21061;-64
2021/09/07 06:05:12;;;;;;;26.15;7.28;;;;;;;21.95;44.07;102231.58;1822461;79;21479;-64
2021/09/07 06:07:41;;;;;;;13.45;5.45;;;;;;;22.13;43.94;102228.66;1822369;77;21045;-64
2021/09/07 06:10:10;;;;;;;11.55;5.22;;;;;;;22.31;43.79;102230.19;1822273;79;21065;-64
2021/09/07 06:12:39;;;;;;;16.00;5.47;;;;;;;22.58;43.73;102226.66;1822508;79;21085;-64
2021/09/07 06:15:10;;;;;;;19.20;5.10;;;;;;;22.91;43.28;102230.73;1822512;79;21085;-64
2021/09/07 06:17:39;;;;;;;8.73;4.22;;;;;;;23.27;42.88;102230.53;1822495;79;21171;-64
2021/09/07 06:20:08;;;;;;;9.88;4.17;;;;;;;23.60;42.54;102227.80;1822527;79;21116;-64
2021/09/07 06:22:37;;;;;;;10.50;4.37;;;;;;;23.80;41.81;102229.95;1849127;77;21129;-64
2021/09/07 06:25:07;;;;;;;8.83;4.12;;;;;;;23.85;41.36;102225.60;1851622;77;21533;-64
2021/09/07 06:27:35;;;;;;;8.43;3.85;;;;;;;23.97;41.00;102221.16;1851741;77;21046;-64
2021/09/07 06:30:06;;;;;;;12.35;4.00;;;;;;;23.98;40.41;102226.92;1851663;77;21043;-64
2021/09/07 06:32:34;;;;;;;7.70;3.37;;;;;;;24.08;40.26;102226.11;1851757;77;21026;-64
2021/09/07 06:35:03;;;;;;;9.63;3.90;;;;;;;24.13;39.84;102228.48;1884829;76;21080;-63
2021/09/07 06:37:32;;;;;;;7.97;3.27;;;;;;;24.12;39.56;102218.67;1889522;76;21024;-63
2021/09/07 06:40:01;;;;;;;23.05;4.05;;;;;;;24.37;39.60;102224.96;1889581;76;21020;-63
2021/09/07 06:42:29;;;;;;;11.05;4.10;;;;;;;24.50;38.89;102231.14;1889489;76;21123;-63
2021/09/07 06:44:58;;;;;;;8.58;3.65;;;;;;;24.41;38.55;102238.06;1889530;76;21209;-63
2021/09/07 06:47:27;;;;;;;7.35;3.52;;;;;;;24.63;38.68;102240.05;1889487;76;21145;-63
2021/09/07 06:49:56;;;;;;;10.28;3.40;;;;;;;24.90;38.48;102235.37;1889475;76;21080;-63
2021/09/07 06:52:24;;;;;;;9.78;3.50;;;;;;;24.92;38.19;102234.76;1889529;76;21466;-63
2021/09/07 06:54:53;;;;;;;11.43;3.65;;;;;;;25.10;38.25;102233.84;1889738;76;21039;-63
2021/09/07 06:57:22;;;;;;;5.90;2.30;;;;;;;25.24;37.83;102241.25;1889512;76;21099;-63
2021/09/07 06:59:52;;;;;;;5.37;2.70;;;;;;;25.33;37.08;102241.03;1889518;76;21146;-63
2021/09/07 07:02:22;;;;;;;9.48;2.80;;;;;;;25.22;36.77;102236.44;1889502;76;21048;-63
2021/09/07 07:04:50;;;;;;;5.12;2.80;;;;;;;25.10;35.81;102233.84;1889493;76;21056;-63
2021/09/07 07:07:19;;;;;;;6.62;2.65;;;;;;;24.91;36.19;102237.10;1889470;76;21106;-63
2021/09/07 07:09:48;;;;;;;13.62;3.52;;;;;;;25.03;36.39;102238.37;1889496;76;21068;-63
2021/09/07 07:12:16;;;;;;;4.03;2.67;;;;;;;25.13;35.69;102230.91;1889490;76;21487;-63
2021/09/07 07:14:45;;;;;;;5.90;2.92;;;;;;;25.15;35.52;102234.34;1889583;76;21052;-63
2021/09/07 07:17:14;;;;;;;7.47;2.70;;;;;;;25.19;35.50;102231.28;1889487;76;21075;-63
2021/09/07 07:19:42;;;;;;;3.40;2.22;;;;;;;25.26;35.42;102237.09;1889502;76;21020;-63
2021/09/07 07:22:11;;;;;;;4.67;2.70;;;;;;;25.30;35.19;102238.56;1892234;75;21111;-63
2021/09/07 07:24:40;;;;;;;6.15;2.10;;;;;;;25.18;35.10;102226.03;1896085;76;21056;-63
2021/09/07 07:27:08;;;;;;;7.62;2.45;;;;;;;25.27;34.60;102233.91;1895938;76;21135;-63
2021/09/07 07:29:37;;;;;;;6.15;2.75;;;;;;;25.27;34.63;102230.74;1896023;76;21056;-63
2021/09/07 07:32:06;;;;;;;5.00;2.25;;;;;;;25.46;34.90;102230.14;1895996;76;21047;-63
2021/09/07 07:34:35;;;;;;;7.25;2.80;;;;;;;25.78;34.55;102238.38;1896116;76;21051;-63
2021/09/07 07:37:05;;;;;;;3.80;2.30;;;;;;;25.86;33.01;102231.48;1896018;76;21125;-63
2021/09/07 07:39:34;;;;;;;12.88;3.25;;;;;;;25.68;33.03;102236.54;1896256;76;21113;-63
2021/09/07 07:42:04;;;;;;;3.98;2.20;;;;;;;25.69;33.49;102228.80;1896081;76;21490;-63
2021/09/07 07:44:33;;;;;;;4.40;1.90;;;;;;;25.89;33.14;102233.95;1896260;76;21044;-63
2021/09/07 07:47:01;;;;;;;5.25;2.17;;;;;;;25.78;32.32;102231.64;1896165;76;21020;-63
2021/09/07 07:49:30;;;;;;;10.28;2.60;;;;;;;25.79;32.77;102231.98;1896124;76;21044;-63
2021/09/07 07:51:59;;;;;;;5.78;2.10;;;;;;;25.88;32.62;102228.20;1896166;76;21099;-63
2021/09/07 07:54:29;;;;;;;4.92;2.37;;;;;;;25.94;32.53;102226.37;1896035;76;21561;-63
2021/09/07 07:56:57;;;;;;;8.68;3.35;;;;;;;26.00;32.26;102222.66;1896123;76;21051;-63
2021/09/07 07:59:26;;;;;;;4.00;1.80;;;;;;;26.24;32.50;102222.14;1896239;76;21047;-63
2021/09/07 08:01:55;;;;;;;7.70;2.47;;;;;;;26.38;31.58;102216.47;1896125;76;21149;-63
2021/09/07 08:04:23;;;;;;;7.37;2.62;;;;;;;26.41;31.00;102208.09;1896153;76;21051;-63
2021/09/07 08:06:52;;;;;;;4.40;1.77;;;;;;;26.41;31.19;102208.09;1895998;76;21055;-63
2021/09/07 08:09:21;;;;;;;3.92;2.10;;;;;;;26.52;30.88;102208.08;1896092;76;21104;-63
2021/09/07 08:11:50;;;;;;;2.42;1.42;;;;;;;26.53;30.90;102212.47;1896169;76;21079;-63
2021/09/07 08:14:19;;;;;;;2.08;1.25;;;;;;;26.47;29.80;102208.09;1896085;76;21114;-63
2021/09/07 08:16:47;;;;;;;5.30;1.40;;;;;;;26.58;30.16;102210.25;1896111;76;21485;-63
2021/09/07 08:19:16;;;;;;;2.90;1.55;;;;;;;26.46;30.19;102205.02;1896013;76;21446;-63
2021/09/07 08:21:46;;;;;;;4.33;1.90;;;;;;;26.57;30.33;102204.97;1896138;76;21028;-63
2021/09/07 08:24:15;;;;;;;3.42;1.27;;;;;;;26.62;29.64;102199.22;1896077;75;21157;-63
2021/09/07 08:26:44;;;;;;;5.80;1.52;;;;;;;26.74;29.45;102181.95;1896119;76;21028;-63
2021/09/07 08:29:13;;;;;;;2.12;1.40;;;;;;;26.85;29.67;102199.45;1896099;76;21079;-63
2021/09/07 08:31:42;;;;;;;2.85;1.82;;;;;;;27.08;29.21;102196.13;1896222;76;21060;-64
2021/09/07 08:34:11;;;;;;;4.62;1.42;;;;;;;27.33;28.44;102188.13;1896048;76;21654;-63
2021/09/07 08:36:39;;;;;;;7.53;1.67;;;;;;;27.57;28.67;102193.69;1896344;76;21114;-63
2021/09/07 08:39:08;;;;;;;1.60;0.90;;;;;;;27.80;28.58;102192.16;1896230;76;21027;-63
2021/09/07 08:41:37;;;;;;;3.87;1.17;;;;;;;27.79;27.58;102189.08;1896116;76;21153;-63
2021/09/07 08:44:06;;;;;;;6.97;1.57;;;;;;;27.54;27.61;102186.72;1896118;76;21113;-63
2021/09/07 08:46:35;;;;;;;3.33;1.20;;;;;;;27.38;27.72;102184.16;1896022;76;21494;-63
2021/09/07 08:49:04;;;;;;;2.50;0.80;;;;;;;27.10;27.78;102186.55;1896104;76;21542;-63
2021/09/07 08:51:33;;;;;;;9.50;1.87;;;;;;;26.66;28.77;102184.47;1896099;76;21083;-63
2021/09/07 08:54:03;;;;;;;6.72;1.30;;;;;;;26.90;28.33;102179.66;1896186;76;21121;-63
2021/09/07 08:56:32;;;;;;;4.60;1.87;;;;;;;27.47;27.96;102184.70;1896114;76;21145;-63
2021/09/07 08:59:00;;;;;;;5.37;1.20;;;;;;;27.83;27.75;102174.27;1895973;76;21532;-63
2021/09/07 09:01:32;;;;;;;6.05;1.40;;;;;;;28.31;27.97;102180.29;1896085;76;21506;-63
2021/09/07 09:04:01;;;;;;;3.35;0.93;;;;;;;28.59;26.84;102173.22;1894968;76;21052;-63
2021/09/07 09:06:29;;;;;;;5.78;1.22;;;;;;;28.46;24.96;102174.83;1896096;76;21730;-63
2021/09/07 09:09:06;;;;;;;1.80;1.10;;;;;;;28.23;25.59;102173.38;1896064;76;21161;-63
2021/09/07 09:11:54;;;;;;;2.92;1.00;;;;;;;28.27;25.33;102174.80;1895945;76;21113;-63
2021/09/07 09:14:38;;;;;;;2.15;1.35;;;;;;;28.19;25.05;102170.61;1896050;76;21045;-63
2021/09/07 09:17:21;;;;;;;4.17;0.80;;;;;;;27.98;25.52;102164.81;1894973;76;21051;-63
2021/09/07 09:19:50;;;;;;;;;;;;;;;27.81;25.23;102176.27;1897822;76;21145;-63
2021/09/07 09:22:19;;;;;;;2.00;0.93;;;;;;;27.80;24.77;102164.59;1896106;76;20140;-63
2021/09/07 09:24:48;;;;;;;4.35;1.10;;;;;;;27.60;25.12;102181.77;1863460;76;21517;-63
2021/09/07 09:27:17;;;;;;;2.42;0.98;;;;;;;27.29;25.18;102175.84;1859418;77;21117;-63
2021/09/07 09:29:45;;;;;;;2.02;1.12;;;;;;;27.38;25.40;102171.98;1859386;77;21120;-63
2021/09/07 09:32:16;;;;;;;3.58;0.80;;;;;;;27.72;25.92;102178.81;1859329;77;21181;-64
2021/09/07 09:34:44;;;;;;;4.28;1.20;;;;;;;27.64;24.61;102161.55;1859504;77;21054;-63
2021/09/07 09:37:16;;;;;;;5.00;1.30;;;;;;;27.31;24.65;102169.80;1859362;77;21080;-63
2021/09/07 09:39:50;;;;;;;5.05;1.00;;;;;;;27.22;25.25;102175.98;1859503;77;21046;-63
2021/09/07 09:42:26;;;;;;;4.30;1.45;;;;;;;27.23;25.16;102176.88;1859379;77;21038;-63
2021/09/07 09:45:03;;;;;;;5.75;1.15;;;;;;;27.25;24.98;102164.92;1858506;77;21211;-63
2021/09/07 09:47:38;;;;;;;1.98;0.80;;;;;;;27.21;24.96;102169.39;1859474;75;21120;-63
2021/09/07 09:50:08;;;;;;;5.65;1.10;;;;;;;27.14;24.93;102170.41;1859395;77;21065;-63
2021/09/07 09:52:39;;;;;;;0.90;0.80;;;;;;;26.93;25.31;102172.64;1859519;77;21124;-63
2021/09/07 09:55:10;;;;;;;4.50;1.07;;;;;;;27.09;25.41;102178.91;1859353;77;21038;-64
2021/09/07 09:57:39;;;;;;;2.30;0.80;;;;;;;26.89;24.99;102179.30;1859381;77;21022;-63
2021/09/07 10:00:10;;;;;;;6.75;1.00;;;;;;;26.73;25.19;102168.09;1859337;77;21046;-63
2021/09/07 10:02:44;;;;;;;7.10;1.45;;;;;;;26.61;25.64;102167.28;1859398;77;21078;-62
2021/09/07 10:05:14;;;;;;;2.55;1.00;;;;;;;26.64;25.87;102166.19;1859416;77;21155;-63
2021/09/07 10:07:45;;;;;;;2.35;0.90;;;;;;;26.91;25.82;102173.27;1859369;77;21077;-63
2021/09/07 10:10:16;;;;;;;3.47;0.98;;;;;;;27.03;25.85;102175.39;1859444;77;21042;-63
2021/09/07 10:12:55;;;;;;;5.45;1.32;;;;;;;26.95;25.48;102176.56;1859141;77;21046;-63
2021/09/07 10:21:10;;;;;;;8.60;1.27;;;;;;;26.52;25.11;102170.26;1827543;77;21034;-62
2021/09/07 10:23:55;;;;;;;4.45;1.92;;;;;;;26.26;25.87;102167.52;1859487;73;21496;-63
2021/09/07 10:26:42;;;;;;;1.95;1.00;;;;;;;26.36;26.53;102165.28;1859329;77;21089;-63
2021/09/07 10:29:13;;;;;;;3.47;1.30;;;;;;;26.62;26.16;102163.61;1859452;77;21062;-63
2021/09/07 10:31:47;;;;;;;5.20;1.40;;;;;;;26.41;25.75;102170.28;1859487;77;21132;-62
2021/09/07 10:34:23;;;;;;;4.05;1.60;;;;;;;26.23;25.75;102171.82;1859342;77;21136;-63
2021/09/07 10:37:00;;;;;;;4.25;1.32;;;;;;;26.16;26.33;102165.59;1859268;77;21544;-63
2021/09/07 10:39:41;;;;;;;9.20;1.50;;;;;;;26.39;26.69;102162.33;1859400;76;21164;-62
2021/09/07 10:42:15;;;;;;;0.95;0.55;;;;;;;26.59;26.92;102143.06;1859372;77;21022;-62
2021/09/07 10:44:45;;;;;;;3.12;1.70;;;;;;;26.58;26.50;102167.02;1859377;77;21116;-63
2021/09/07 10:47:16;;;;;;;2.35;1.30;;;;;;;26.41;27.20;102161.33;1856665;77;21124;-64
2021/09/07 10:49:55;;;;;;;4.85;1.40;;;;;;;26.34;27.30;102165.06;1859286;77;21622;-63
2021/09/07 10:52:30;;;;;;;4.87;1.00;;;;;;;26.24;27.40;102160.05;1859370;77;21119;-63
2021/09/07 10:55:09;;;;;;;2.15;1.02;;;;;;;26.21;27.33;102162.53;1859356;77;21136;-62
2021/09/07 10:57:44;;;;;;;4.12;1.15;;;;;;;26.13;27.55;102158.24;1859365;77;21046;-64
2021/09/07 11:00:21;;;;;;;7.92;1.27;;;;;;;25.98;27.55;102153.62;1859352;77;21120;-63
2021/09/07 11:02:58;;;;;;;3.02;1.10;;;;;;;25.48;27.55;102149.13;1858308;76;21473;-63
2021/09/07 11:05:36;;;;;;;3.15;1.00;;;;;;;24.75;28.52;102158.82;1859465;77;21038;-62
2021/09/07 11:08:04;;;;;;;;;;;;;;;24.30;29.16;102145.64;1860672;77;21054;-63
2021/09/07 11:10:34;;;;;;;6.35;2.35;;;;;;;24.26;28.88;102152.59;1859262;77;20240;-62
2021/09/07 11:13:06;;;;;;;4.03;1.57;;;;;;;24.36;29.28;102146.02;1859504;77;21050;-63
2021/09/07 11:15:41;;;;;;;2.40;1.15;;;;;;;24.48;29.22;102151.83;1859725;77;21023;-63
2021/09/07 11:18:15;;;;;;;2.92;1.00;;;;;;;24.54;29.27;102153.72;1859464;77;21042;-63
2021/09/07 11:20:47;;;;;;;3.22;0.85;;;;;;;24.43;29.38;102147.77;1859341;77;21070;-63
2021/09/07 11:23:33;;;;;;;1.60;0.93;;;;;;;24.31;29.58;102147.34;1859423;76;21018;-63
2021/09/07 11:26:13;;;;;;;3.65;1.12;;;;;;;24.18;29.81;102146.94;1887732;74;21217;-63
2021/09/07 11:28:47;;;;;;;1.72;0.90;;;;;;;24.06;30.41;102146.49;1896131;76;21541;-63
2021/09/07 11:31:16;;;;;;;4.30;1.40;;;;;;;23.98;30.63;102141.69;1895965;76;21607;-63
2021/09/07 11:33:45;;;;;;;5.60;1.22;;;;;;;23.80;30.69;102131.78;1896092;76;21567;-63
2021/09/07 11:36:17;;;;;;;6.53;1.17;;;;;;;23.74;31.13;102132.22;1896083;76;21548;-62
2021/09/07 11:38:51;;;;;;;5.10;1.05;;;;;;;23.77;31.06;102129.28;1896125;76;21543;-63
2021/09/07 11:41:22;;;;;;;5.17;0.80;;;;;;;23.78;30.81;102129.66;1896299;76;21146;-62
2021/09/07 11:43:55;;;;;;;5.12;1.25;;;;;;;23.75;30.94;102123.16;1896065;76;21180;-63